Time;durP1;ratioP1;P1;durP2;ratioP2;P2;SDS_P1;SDS_P2;PMS_P1;PMS_P2;Temp;Humidity;BMP_temperature;BMP_pressure;BME280_temperature;BME280_humidity;BME280_pressure;Samples;Min_cycle;Max_cycle;Signal;HPM_P1;HPM_P2
2023/06/08 00:00:09;;;;;;;9.73;5.20;;;14.70;99.90;;;;;;5092521;28;20531;-64
2023/06/08 00:02:40;;;;;;;8.93;5.43;;;14.70;99.90;;;;;;5082602;28;20131;-64
2023/06/08 00:05:12;;;;;;;8.20;5.43;;;14.60;99.90;;;;;;5075090;28;20801;-63
2023/06/08 00:07:40;;;;;;;7.75;5.15;;;14.60;99.90;;;;;;5095586;28;20148;-64
2023/06/08 00:10:10;;;;;;;8.45;4.90;;;14.60;99.90;;;;;;5092438;28;20040;-63
2023/06/08 00:12:37;;;;;;;8.30;4.60;;;14.60;99.90;;;;;;5079981;28;20118;-63
2023/06/08 00:15:06;;;;;;;8.52;5.13;;;14.50;99.90;;;;;;5074848;28;20172;-63
2023/06/08 00:17:33;;;;;;;9.68;5.07;;;14.40;99.90;;;;;;5099705;28;20050;-64
2023/06/08 00:20:00;;;;;;;9.13;5.20;;;14.40;99.90;;;;;;5093222;28;20047;-62
2023/06/08 00:22:29;;;;;;;9.65;5.75;;;14.20;99.90;;;;;;5101321;28;20040;-63
2023/06/08 00:24:55;;;;;;;6.65;4.70;;;14.20;99.90;;;;;;5096145;28;20396;-63
2023/06/08 00:27:22;;;;;;;7.50;5.03;;;14.20;99.90;;;;;;5098014;28;20047;-63
2023/06/08 00:29:49;;;;;;;11.40;6.57;;;14.10;99.90;;;;;;5091379;28;20044;-63
2023/06/08 00:32:16;;;;;;;6.03;5.28;;;13.80;99.90;;;;;;5056868;28;20151;-62
2023/06/08 00:34:43;;;;;;;9.00;4.88;;;13.70;99.90;;;;;;5072694;28;20155;-62
2023/06/08 00:37:09;;;;;;;8.50;5.45;;;13.60;99.90;;;;;;5073529;28;20043;-63
2023/06/08 00:39:36;;;;;;;7.70;5.10;;;13.60;99.90;;;;;;5072999;28;20036;-63
2023/06/08 00:42:03;;;;;;;8.05;5.05;;;13.70;99.90;;;;;;5072562;28;20035;-61
2023/06/08 00:44:30;;;;;;;8.57;5.07;;;13.60;99.90;;;;;;5091332;28;20032;-63
2023/06/08 00:46:57;;;;;;;7.20;5.53;;;13.60;99.90;;;;;;5073360;28;20052;-62
2023/06/08 00:49:25;;;;;;;8.55;6.07;;;13.70;99.90;;;;;;5055932;28;20121;-63
2023/06/08 00:51:52;;;;;;;7.15;5.35;;;13.80;99.90;;;;;;5072433;28;20044;-63
2023/06/08 00:54:24;;;;;;;9.50;5.72;;;13.80;99.90;;;;;;5072767;28;20054;-61
2023/06/08 00:56:52;;;;;;;7.18;5.20;;;13.80;99.90;;;;;;5073454;28;20040;-63
2023/06/08 00:59:20;;;;;;;7.32;5.25;;;13.70;99.90;;;;;;5072215;28;20044;-63
2023/06/08 01:01:47;;;;;;;7.38;5.47;;;13.70;99.90;;;;;;5090991;28;20412;-63
2023/06/08 01:04:14;;;;;;;11.00;5.95;;;13.70;99.90;;;;;;5072954;28;20385;-63
2023/06/08 01:06:46;;;;;;;9.50;5.80;;;13.60;99.90;;;;;;5090397;28;20408;-63
2023/06/08 01:09:43;;;;;;;8.48;5.05;;;13.60;99.90;;;;;;5072266;28;20071;-63
2023/06/08 01:12:33;;;;;;;9.25;5.72;;;13.70;99.90;;;;;;5090155;28;20040;-63
2023/06/08 01:15:13;;;;;;;7.35;5.65;;;13.70;99.90;;;;;;5071589;28;20425;-63
2023/06/08 01:17:45;;;;;;;10.38;5.28;;;13.70;99.90;;;;;;5074644;28;20051;-62
2023/06/08 01:20:41;;;;;;;7.78;5.70;;;13.60;99.90;;;;;;5090923;28;20047;-61
2023/06/08 01:23:20;;;;;;;9.30;5.03;;;13.60;99.90;;;;;;5086433;28;20078;-63
2023/06/08 01:25:48;;;;;;;13.35;5.97;;;13.50;99.90;;;;;;5071806;28;20048;-63
2023/06/08 01:28:16;;;;;;;8.50;5.47;;;13.60;99.90;;;;;;5090391;28;20401;-61
2023/06/08 01:30:46;;;;;;;7.68;5.70;;;13.50;99.90;;;;;;5071901;28;20131;-63
2023/06/08 01:33:21;;;;;;;7.63;5.20;;;13.50;99.90;;;;;;5073131;28;20492;-63
2023/06/08 01:35:59;;;;;;;8.52;6.15;;;13.40;99.90;;;;;;5071539;28;20609;-63
2023/06/08 01:38:49;;;;;;;;;;;13.40;99.90;;;;;;5046365;28;20577;-62
2023/06/08 01:41:26;;;;;;;9.48;5.45;;;13.40;99.90;;;;;;5069024;28;20022;-62
2023/06/08 01:43:56;;;;;;;8.77;5.50;;;13.50;99.90;;;;;;5078298;28;20142;-63
2023/06/08 01:46:26;;;;;;;7.68;5.43;;;13.30;99.90;;;;;;5072158;28;20067;-63
2023/06/08 01:48:55;;;;;;;7.63;5.78;;;13.30;99.90;;;;;;5089426;28;20042;-61
2023/06/08 01:51:23;;;;;;;11.77;5.50;;;13.30;99.90;;;;;;5079370;28;20040;-62
2023/06/08 01:53:58;;;;;;;7.65;5.80;;;13.30;99.90;;;;;;5071186;28;20094;-63
2023/06/08 01:56:30;;;;;;;8.77;6.18;;;13.30;99.90;;;;;;5090123;28;20036;-63
2023/06/08 01:58:57;;;;;;;9.52;5.80;;;13.30;99.90;;;;;;5071862;28;20055;-63
2023/06/08 02:01:24;;;;;;;9.10;5.10;;;13.40;99.90;;;;;;5069360;28;20611;-63
2023/06/08 02:03:52;;;;;;;;;;;13.40;99.90;;;;;;5073244;28;20428;-63
2023/06/08 02:06:19;;;;;;;8.32;5.45;;;13.30;99.90;;;;;;5083579;28;19926;-61
2023/06/08 02:08:46;;;;;;;8.52;5.20;;;13.30;99.90;;;;;;5070865;28;20044;-62
2023/06/08 02:11:12;;;;;;;8.05;5.63;;;13.30;99.90;;;;;;5071544;28;20086;-63
2023/06/08 02:13:41;;;;;;;7.80;5.93;;;13.30;99.90;;;;;;5070176;28;20048;-62
2023/06/08 02:16:08;;;;;;;7.78;5.50;;;13.30;99.90;;;;;;5063614;28;20042;-63
2023/06/08 02:18:40;;;;;;;8.68;6.00;;;13.20;99.90;;;;;;5079509;28;20389;-61
2023/06/08 02:21:08;;;;;;;9.27;5.40;;;13.30;99.90;;;;;;5090346;28;20044;-63
2023/06/08 02:23:35;;;;;;;10.93;6.22;;;13.20;99.90;;;;;;5069358;28;20126;-63
2023/06/08 02:26:03;;;;;;;9.63;6.32;;;13.20;99.90;;;;;;5073038;28;20059;-63
2023/06/08 02:28:30;;;;;;;7.32;6.00;;;13.10;99.90;;;;;;5088091;28;20135;-63
2023/06/08 02:30:57;;;;;;;7.95;5.35;;;13.10;99.90;;;;;;5089903;28;20119;-63
2023/06/08 02:33:24;;;;;;;;;;;13.10;99.90;;;;;;5071178;28;20568;-63
2023/06/08 02:35:51;;;;;;;12.65;5.30;;;13.00;99.90;;;;;;5054184;28;20348;-63
2023/06/08 02:38:18;;;;;;;10.32;6.03;;;13.00;99.90;;;;;;5070225;28;20056;-63
2023/06/08 02:40:45;;;;;;;9.35;6.15;;;13.00;99.90;;;;;;5071313;28;20488;-62
2023/06/08 02:43:14;;;;;;;11.13;6.32;;;13.00;99.90;;;;;;5068998;28;20059;-63
2023/06/08 02:45:44;;;;;;;8.13;5.93;;;12.90;99.90;;;;;;5067810;28;20520;-63
2023/06/08 02:48:12;;;;;;;11.50;6.40;;;12.90;99.90;;;;;;5070591;28;20044;-62
2023/06/08 02:50:38;;;;;;;12.52;7.13;;;12.90;99.90;;;;;;5090394;28;20549;-63
2023/06/08 02:53:06;;;;;;;10.75;7.00;;;12.80;99.90;;;;;;5069932;28;20520;-62
2023/06/08 02:55:36;;;;;;;12.88;7.63;;;12.70;99.90;;;;;;5070316;28;20067;-63
2023/06/08 02:58:10;;;;;;;9.68;6.28;;;12.70;99.90;;;;;;5071049;28;20050;-64
2023/06/08 03:00:37;;;;;;;10.57;6.55;;;12.70;99.90;;;;;;5065964;28;20056;-64
2023/06/08 03:03:23;;;;;;;9.90;7.13;;;12.70;99.90;;;;;;5071576;28;20505;-63
2023/06/08 03:05:58;;;;;;;11.27;7.05;;;12.60;99.90;;;;;;5071716;28;20499;-62
2023/06/08 03:08:30;;;;;;;10.70;7.93;;;12.60;99.90;;;;;;5073386;28;21275;-63
2023/06/08 03:10:58;;;;;;;9.55;6.85;;;12.60;99.90;;;;;;5071433;28;20467;-62
2023/06/08 03:13:25;;;;;;;;;;;12.60;99.90;;;;;;5061392;28;20036;-62
2023/06/08 03:15:52;;;;;;;12.18;6.35;;;12.60;99.90;;;;;;5059996;28;19920;-63
2023/06/08 03:18:19;;;;;;;8.40;6.20;;;12.60;99.90;;;;;;5053289;28;20135;-63
2023/06/08 03:20:47;;;;;;;11.93;6.90;;;12.60;99.90;;;;;;5058589;28;20204;-62
2023/06/08 03:23:17;;;;;;;8.73;6.07;;;12.60;99.90;;;;;;5070126;28;20044;-63
2023/06/08 03:25:48;;;;;;;8.82;6.32;;;12.50;99.90;;;;;;5093364;28;20043;-63
2023/06/08 03:28:16;;;;;;;9.13;6.70;;;12.50;99.90;;;;;;5074642;28;20584;-63
2023/06/08 03:30:45;;;;;;;9.55;6.75;;;12.30;99.90;;;;;;5057977;28;20046;-63
2023/06/08 03:33:14;;;;;;;12.13;7.13;;;12.10;99.90;;;;;;5074374;28;20032;-63
2023/06/08 03:35:48;;;;;;;7.93;5.93;;;12.00;99.90;;;;;;5074514;28;20085;-63
2023/06/08 03:38:19;;;;;;;12.05;6.43;;;12.20;99.90;;;;;;5070680;28;20450;-63
2023/06/08 03:40:47;;;;;;;10.10;6.85;;;12.00;99.90;;;;;;5091379;28;20055;-62
2023/06/08 03:43:15;;;;;;;9.18;6.28;;;12.00;99.90;;;;;;5074694;28;20067;-61
2023/06/08 03:45:43;;;;;;;13.27;6.43;;;12.00;99.90;;;;;;5073130;28;20078;-62
2023/06/08 03:48:10;;;;;;;10.70;6.53;;;12.10;99.90;;;;;;5074636;28;20139;-63
2023/06/08 03:50:38;;;;;;;9.25;6.30;;;12.10;99.90;;;;;;5070493;28;20130;-64
2023/06/08 03:53:06;;;;;;;10.02;6.75;;;12.10;99.90;;;;;;5092970;28;20115;-63
2023/06/08 03:55:33;;;;;;;8.75;6.22;;;12.10;99.90;;;;;;5067588;28;20036;-62
2023/06/08 03:58:00;;;;;;;9.88;6.43;;;12.20;99.90;;;;;;5086529;28;20267;-62
2023/06/08 04:00:29;;;;;;;6.97;5.85;;;12.20;99.90;;;;;;5073961;28;20071;-63
2023/06/08 04:02:57;;;;;;;9.38;6.78;;;12.20;99.90;;;;;;5072921;28;20062;-63
2023/06/08 04:05:24;;;;;;;12.60;6.68;;;12.30;99.90;;;;;;5073800;28;20044;-63
2023/06/08 04:07:51;;;;;;;9.70;6.30;;;12.30;99.90;;;;;;5070754;28;20044;-63
2023/06/08 04:10:18;;;;;;;10.80;6.50;;;12.40;99.90;;;;;;5092189;28;20464;-63
2023/06/08 04:12:47;;;;;;;9.02;6.60;;;12.40;99.90;;;;;;5077647;28;20066;-63
2023/06/08 04:15:14;;;;;;;10.32;6.35;;;12.40;99.90;;;;;;5073627;28;20055;-63
2023/06/08 04:17:43;;;;;;;10.70;6.78;;;12.50;99.90;;;;;;5072189;28;20476;-63
2023/06/08 04:20:12;;;;;;;9.27;6.55;;;12.50;99.90;;;;;;5090875;28;20040;-63
2023/06/08 04:22:42;;;;;;;11.85;6.68;;;12.60;99.90;;;;;;5073003;28;20558;-62
2023/06/08 04:25:09;;;;;;;8.32;6.07;;;12.60;99.90;;;;;;5072702;28;20496;-62
2023/06/08 04:27:36;;;;;;;12.15;6.43;;;12.70;99.90;;;;;;5063301;28;20056;-62
2023/06/08 04:30:05;;;;;;;9.23;6.35;;;12.80;99.90;;;;;;5073360;28;20139;-63
2023/06/08 04:32:32;;;;;;;8.95;6.38;;;12.90;99.90;;;;;;5072385;28;20513;-62
2023/06/08 04:35:03;;;;;;;9.85;6.53;;;13.00;99.90;;;;;;5073470;28;20082;-61
2023/06/08 04:37:32;;;;;;;8.68;6.80;;;12.90;99.90;;;;;;5069266;28;20497;-63
2023/06/08 04:39:58;;;;;;;7.53;6.15;;;13.10;99.90;;;;;;5070661;28;20489;-62
2023/06/08 04:42:27;;;;;;;10.50;6.45;;;13.30;99.90;;;;;;5073125;28;20125;-62
2023/06/08 04:44:54;;;;;;;;;;;13.40;99.90;;;;;;5053970;28;20037;-64
2023/06/08 04:47:21;;;;;;;9.43;6.35;;;13.50;99.90;;;;;;5087928;28;19930;-63
2023/06/08 04:49:51;;;;;;;11.13;6.55;;;13.60;99.90;;;;;;5075508;28;20492;-63
2023/06/08 04:52:19;;;;;;;9.70;6.53;;;13.60;99.90;;;;;;5072906;28;20055;-63
2023/06/08 04:54:46;;;;;;;7.75;6.60;;;13.60;99.90;;;;;;5073085;28;20044;-63
2023/06/08 04:57:16;;;;;;;10.52;6.78;;;13.70;99.90;;;;;;5091824;28;20032;-63
2023/06/08 04:59:43;;;;;;;8.43;6.57;;;13.80;99.90;;;;;;5073228;28;20102;-64
2023/06/08 05:02:11;;;;;;;9.98;7.30;;;13.90;99.90;;;;;;5066703;28;20044;-63
2023/06/08 05:04:38;;;;;;;10.07;7.43;;;14.10;99.90;;;;;;5053334;28;20568;-63
2023/06/08 05:07:06;;;;;;;10.10;7.07;;;14.20;99.90;;;;;;5088409;28;20036;-62
2023/06/08 05:09:32;;;;;;;;;;;14.30;99.90;;;;;;5057385;28;20084;-63
2023/06/08 05:11:59;;;;;;;11.48;7.50;;;14.40;99.90;;;;;;5080553;28;19927;-63
2023/06/08 05:14:26;;;;;;;8.90;7.53;;;14.50;99.90;;;;;;5088105;28;20052;-63
2023/06/08 05:16:53;;;;;;;9.63;7.28;;;14.50;99.90;;;;;;5085532;28;20048;-63
2023/06/08 05:19:20;;;;;;;9.73;7.35;;;14.60;99.90;;;;;;5063386;28;20493;-64
2023/06/08 05:21:46;;;;;;;10.20;7.55;;;14.40;99.90;;;;;;5089646;28;20062;-63
2023/06/08 05:24:13;;;;;;;11.27;7.45;;;14.50;99.90;;;;;;5091233;28;20054;-62
2023/06/08 05:26:41;;;;;;;11.57;7.18;;;14.50;99.90;;;;;;5090423;28;20063;-63
2023/06/08 05:29:08;;;;;;;10.95;7.80;;;14.50;99.90;;;;;;5055746;28;20040;-63
2023/06/08 05:31:36;;;;;;;10.07;7.43;;;14.90;99.90;;;;;;5089923;28;20036;-64
2023/06/08 05:34:02;;;;;;;10.48;7.20;;;15.00;99.90;;;;;;5072614;28;20048;-63
2023/06/08 05:36:29;;;;;;;14.43;8.25;;;14.90;99.90;;;;;;5090080;28;20059;-63
2023/06/08 05:38:56;;;;;;;11.02;8.10;;;15.00;99.90;;;;;;5065740;28;20153;-63
2023/06/08 05:41:23;;;;;;;12.82;9.00;;;15.00;99.90;;;;;;5061271;28;20048;-63
2023/06/08 05:43:50;;;;;;;13.57;8.70;;;15.00;99.90;;;;;;5091360;28;20101;-63
2023/06/08 05:46:16;;;;;;;12.77;8.25;;;15.00;99.90;;;;;;5071218;28;20744;-64
2023/06/08 05:48:43;;;;;;;10.77;7.75;;;15.10;99.90;;;;;;5072020;28;20046;-64
2023/06/08 05:51:10;;;;;;;16.23;8.38;;;15.20;99.90;;;;;;5087432;28;20036;-62
2023/06/08 05:53:38;;;;;;;10.63;8.13;;;15.30;99.90;;;;;;5090823;28;20039;-63
2023/06/08 05:56:05;;;;;;;13.40;8.70;;;15.30;99.90;;;;;;5081887;28;20040;-64
2023/06/08 05:58:32;;;;;;;11.73;7.40;;;15.30;99.90;;;;;;5078795;28;20483;-62
2023/06/08 06:01:15;;;;;;;15.43;8.90;;;15.40;99.90;;;;;;5081538;28;20044;-63
2023/06/08 06:03:42;;;;;;;10.80;7.63;;;15.40;99.90;;;;;;5090592;28;20127;-62
2023/06/08 06:06:10;;;;;;;;;;;15.40;99.90;;;;;;5069277;28;20047;-63
2023/06/08 06:08:37;;;;;;;11.98;8.80;;;15.50;99.90;;;;;;5066514;28;19966;-62
2023/06/08 06:11:06;;;;;;;11.02;8.60;;;15.40;99.90;;;;;;5076414;28;20048;-63
2023/06/08 06:13:34;;;;;;;11.45;8.60;;;15.40;99.90;;;;;;5081838;28;20055;-64
2023/06/08 06:16:00;;;;;;;11.32;8.95;;;15.40;99.90;;;;;;5072120;28;20068;-63
2023/06/08 06:18:27;;;;;;;10.73;7.93;;;15.40;99.90;;;;;;5079792;28;20055;-62
2023/06/08 06:20:55;;;;;;;10.10;7.70;;;15.40;99.90;;;;;;5089549;28;20048;-63
2023/06/08 06:23:22;;;;;;;;;;;15.40;99.90;;;;;;5088411;28;20059;-62
2023/06/08 06:25:51;;;;;;;10.77;7.95;;;15.40;99.90;;;;;;5079910;28;19930;-64
2023/06/08 06:28:17;;;;;;;10.30;7.78;;;15.50;99.90;;;;;;5088363;28;20064;-64
2023/06/08 06:30:44;;;;;;;9.73;7.43;;;15.50;99.90;;;;;;5089661;28;20484;-62
2023/06/08 06:33:11;;;;;;;10.23;7.25;;;15.50;99.90;;;;;;5089650;28;20082;-63
2023/06/08 06:35:38;;;;;;;13.95;7.93;;;15.60;99.90;;;;;;5084964;28;20032;-64
2023/06/08 06:38:05;;;;;;;12.35;8.60;;;15.60;99.90;;;;;;5086076;28;20040;-62
2023/06/08 06:40:31;;;;;;;13.82;8.02;;;15.70;99.90;;;;;;5072109;28;20036;-64
2023/06/08 06:42:58;;;;;;;12.23;8.43;;;15.70;99.90;;;;;;5071541;28;20563;-62
2023/06/08 06:45:32;;;;;;;12.52;7.60;;;15.80;99.90;;;;;;5064548;28;20044;-63
2023/06/08 06:47:58;;;;;;;10.07;7.80;;;15.90;99.90;;;;;;5090841;28;20048;-63
2023/06/08 06:50:25;;;;;;;11.15;7.78;;;15.90;99.90;;;;;;5055905;28;20101;-63
2023/06/08 06:52:52;;;;;;;11.77;8.77;;;16.00;99.90;;;;;;5089159;28;20043;-62
2023/06/08 06:55:19;;;;;;;12.30;8.05;;;15.90;99.90;;;;;;5073505;28;20402;-64
2023/06/08 06:57:48;;;;;;;20.35;10.13;;;15.90;99.90;;;;;;5088105;28;20048;-64
2023/06/08 07:00:15;;;;;;;10.15;8.00;;;15.80;99.90;;;;;;5093194;28;20048;-63
2023/06/08 07:02:42;;;;;;;10.93;7.95;;;15.80;99.90;;;;;;5092729;28;20416;-63
2023/06/08 07:05:10;;;;;;;12.48;8.93;;;15.80;99.90;;;;;;5069954;28;20044;-64
2023/06/08 07:07:37;;;;;;;12.27;8.50;;;15.90;99.90;;;;;;5075116;28;20052;-63
2023/06/08 07:10:04;;;;;;;14.25;8.75;;;16.20;99.90;;;;;;5066726;28;20143;-64
2023/06/08 07:12:32;;;;;;;10.30;8.80;;;16.30;99.90;;;;;;5074463;28;20071;-64
2023/06/08 07:14:58;;;;;;;14.70;8.88;;;16.50;99.90;;;;;;5074361;28;20056;-63
2023/06/08 07:17:25;;;;;;;11.48;8.43;;;16.50;99.90;;;;;;5072185;28;20044;-62
2023/06/08 07:19:53;;;;;;;14.65;8.38;;;16.50;99.90;;;;;;5092815;28;20492;-63
2023/06/08 07:22:20;;;;;;;14.05;8.65;;;16.50;99.90;;;;;;5091572;28;20045;-63
2023/06/08 07:25:07;;;;;;;14.13;8.15;;;16.50;99.90;;;;;;5091279;28;20109;-63
2023/06/08 07:27:54;;;;;;;12.02;8.40;;;16.70;99.90;;;;;;5092754;28;20040;-62
2023/06/08 07:30:21;;;;;;;13.27;8.20;;;16.90;99.90;;;;;;5075446;28;20032;-64
2023/06/08 07:32:49;;;;;;;10.32;8.20;;;17.00;99.90;;;;;;5072740;28;20055;-63
2023/06/08 07:35:16;;;;;;;11.80;8.25;;;17.20;99.90;;;;;;5091861;28;20101;-62
2023/06/08 07:37:43;;;;;;;9.88;7.82;;;17.40;99.90;;;;;;5089074;28;20333;-62
2023/06/08 07:40:11;;;;;;;9.93;7.75;;;17.60;99.90;;;;;;5101979;28;20046;-64
2023/06/08 07:42:38;;;;;;;9.85;7.57;;;17.70;99.90;;;;;;5091023;28;20069;-64
2023/06/08 07:45:05;;;;;;;11.55;7.55;;;17.80;99.90;;;;;;5090820;28;20036;-64
2023/06/08 07:47:33;;;;;;;13.07;7.90;;;17.90;99.90;;;;;;5089179;28;20051;-64
2023/06/08 07:50:03;;;;;;;9.63;7.45;;;17.90;99.90;;;;;;5092374;28;20127;-62
2023/06/08 07:52:31;;;;;;;9.10;7.18;;;18.10;99.90;;;;;;5088464;28;20392;-64
2023/06/08 07:54:58;;;;;;;10.02;7.13;;;18.20;99.90;;;;;;5092881;28;20036;-64
2023/06/08 07:57:25;;;;;;;11.88;7.60;;;18.30;99.90;;;;;;5091729;28;20050;-64
2023/06/08 07:59:52;;;;;;;11.18;7.60;;;18.30;99.90;;;;;;5092217;28;20052;-63
2023/06/08 08:02:20;;;;;;;9.90;7.00;;;18.40;99.90;;;;;;5089910;28;20499;-63
2023/06/08 08:04:47;;;;;;;10.55;7.25;;;18.50;99.90;;;;;;5073200;28;20051;-63
2023/06/08 08:07:14;;;;;;;12.48;7.70;;;18.70;99.90;;;;;;5092781;28;20040;-63
2023/06/08 08:09:41;;;;;;;10.75;7.47;;;18.80;99.90;;;;;;5089015;28;20047;-64
2023/06/08 08:12:11;;;;;;;10.55;7.40;;;19.00;99.90;;;;;;5092809;28;20123;-63
2023/06/08 08:14:39;;;;;;;11.02;7.40;;;19.30;99.90;;;;;;5072558;28;20075;-64
2023/06/08 08:17:06;;;;;;;9.27;6.85;;;19.30;99.90;;;;;;5091890;28;20055;-64
2023/06/08 08:19:33;;;;;;;9.45;7.43;;;19.30;99.90;;;;;;5072832;28;20044;-64
2023/06/08 08:21:59;;;;;;;10.88;7.20;;;19.50;99.90;;;;;;5093545;28;20052;-64
2023/06/08 08:24:26;;;;;;;13.63;7.82;;;19.60;99.90;;;;;;5083209;28;20039;-63
2023/06/08 08:26:55;;;;;;;9.27;7.38;;;19.70;99.90;;;;;;5093174;28;20044;-63
2023/06/08 08:29:21;;;;;;;10.25;6.88;;;19.80;99.90;;;;;;5065275;28;20044;-63
2023/06/08 08:31:48;;;;;;;10.32;7.20;;;19.90;99.90;;;;;;5091387;28;20419;-63
2023/06/08 08:34:15;;;;;;;9.30;7.15;;;19.80;99.90;;;;;;5091904;28;20432;-63
2023/06/08 08:36:42;;;;;;;9.55;7.30;;;19.90;99.90;;;;;;5074720;28;20054;-63
2023/06/08 08:39:10;;;;;;;11.15;6.50;;;19.90;99.90;;;;;;5073479;28;20043;-64
2023/06/08 08:41:41;;;;;;;8.00;6.78;;;20.00;99.90;;;;;;5073608;28;20516;-63
2023/06/08 08:44:08;;;;;;;9.93;6.47;;;20.00;99.90;;;;;;5092016;28;20036;-63
2023/06/08 08:46:38;;;;;;;8.32;6.55;;;20.10;99.90;;;;;;5074024;28;20067;-63
2023/06/08 08:49:14;;;;;;;9.73;6.15;;;20.20;99.90;;;;;;5081930;28;20048;-64
2023/06/08 08:51:48;;;;;;;10.20;7.07;;;20.50;99.90;;;;;;5088368;28;20042;-61
2023/06/08 08:54:15;;;;;;;10.95;7.00;;;20.70;99.90;;;;;;5091670;28;20036;-63
2023/06/08 08:56:43;;;;;;;9.85;6.70;;;20.90;99.90;;;;;;5072162;28;20505;-63
2023/06/08 08:59:11;;;;;;;9.30;6.70;;;21.00;99.90;;;;;;5091071;28;20036;-63
2023/06/08 09:01:40;;;;;;;11.65;6.95;;;21.10;99.90;;;;;;5072331;28;20051;-64
2023/06/08 09:04:07;;;;;;;10.50;7.30;;;21.20;99.90;;;;;;5091779;28;20031;-64
2023/06/08 09:06:34;;;;;;;;;;;21.40;99.90;;;;;;5091985;28;20114;-62
2023/06/08 09:09:01;;;;;;;7.82;6.28;;;21.40;99.90;;;;;;5087974;28;20266;-64
2023/06/08 09:11:27;;;;;;;7.05;5.57;;;21.40;99.90;;;;;;5091221;28;20043;-64
2023/06/08 09:14:08;;;;;;;8.27;6.20;;;21.40;99.90;;;;;;5090944;28;20116;-64
2023/06/08 09:16:43;;;;;;;8.52;6.20;;;21.70;99.90;;;;;;5074666;28;20036;-64
2023/06/08 09:19:11;;;;;;;7.28;6.07;;;21.90;99.90;;;;;;5091720;28;20040;-64
2023/06/08 09:21:40;;;;;;;7.78;6.00;;;22.00;99.90;;;;;;5090178;28;20043;-64
2023/06/08 09:24:16;;;;;;;9.45;6.40;;;22.00;99.90;;;;;;5088497;28;20484;-64
2023/06/08 09:26:53;;;;;;;9.38;6.05;;;22.10;99.90;;;;;;5091002;28;20144;-64
2023/06/08 09:29:32;;;;;;;8.05;6.18;;;22.20;99.90;;;;;;5091632;28;20127;-64
2023/06/08 09:32:02;;;;;;;7.43;6.03;;;22.20;99.90;;;;;;5087371;28;20042;-64
2023/06/08 09:34:30;;;;;;;13.30;6.13;;;22.50;99.90;;;;;;5091196;28;20497;-64
2023/06/08 09:37:07;;;;;;;7.47;6.13;;;22.60;99.90;;;;;;5090201;28;20385;-63
2023/06/08 09:39:41;;;;;;;10.38;6.32;;;22.70;99.90;;;;;;5084917;28;20051;-64
2023/06/08 09:42:09;;;;;;;7.28;5.70;;;22.90;99.90;;;;;;5090810;28;20515;-64
2023/06/08 09:44:37;;;;;;;7.72;5.70;;;23.00;99.90;;;;;;5090648;28;20040;-64
2023/06/08 09:47:27;;;;;;;6.85;5.80;;;23.10;99.90;;;;;;5090109;28;20044;-63
2023/06/08 09:49:55;;;;;;;7.45;5.60;;;23.20;98.90;;;;;;5089534;28;20081;-64
2023/06/08 09:52:23;;;;;;;8.27;6.30;;;23.20;99.00;;;;;;5090231;28;20036;-64
2023/06/08 09:54:51;;;;;;;7.93;6.13;;;23.20;99.90;;;;;;5090793;28;20059;-64
2023/06/08 09:57:20;;;;;;;11.15;6.55;;;23.10;99.90;;;;;;5063158;28;20047;-64
2023/06/08 10:00:08;;;;;;;11.30;6.80;;;23.10;99.90;;;;;;5090285;28;20044;-64
2023/06/08 10:03:17;;;;;;;9.77;6.20;;;23.10;99.90;;;;;;5090164;28;20048;-64
2023/06/08 10:05:45;;;;;;;10.10;6.65;;;23.20;99.90;;;;;;5088855;28;20036;-64
2023/06/08 10:08:19;;;;;;;10.63;6.70;;;23.30;99.90;;;;;;5085602;28;20044;-64
2023/06/08 10:10:47;;;;;;;8.13;6.32;;;23.20;99.90;;;;;;5079504;28;20052;-64
2023/06/08 10:13:15;;;;;;;10.43;6.03;;;23.40;99.90;;;;;;5067464;28;20123;-64
2023/06/08 10:15:43;;;;;;;9.43;6.50;;;23.60;99.90;;;;;;5086606;28;20040;-63
2023/06/08 10:18:10;;;;;;;8.40;6.45;;;23.70;99.90;;;;;;5064269;28;20044;-64
2023/06/08 10:20:37;;;;;;;8.13;5.53;;;23.90;99.90;;;;;;5084452;28;20052;-65
2023/06/08 10:23:05;;;;;;;6.85;5.70;;;24.00;99.90;;;;;;5089300;28;20052;-64
2023/06/08 10:25:34;;;;;;;8.30;6.28;;;24.10;99.90;;;;;;5091206;28;20037;-64
2023/06/08 10:28:06;;;;;;;9.00;5.78;;;24.10;99.90;;;;;;5093125;28;20070;-64
2023/06/08 10:30:40;;;;;;;6.82;5.75;;;24.20;99.90;;;;;;5091608;28;20055;-64
2023/06/08 10:33:21;;;;;;;8.85;6.38;;;24.30;99.90;;;;;;5088638;28;20045;-64
2023/06/08 10:36:05;;;;;;;9.60;6.63;;;24.20;99.90;;;;;;5095252;28;20047;-64
2023/06/08 10:38:55;;;;;;;7.80;6.45;;;24.10;99.90;;;;;;5084649;28;20059;-64
2023/06/08 10:41:41;;;;;;;8.13;6.32;;;24.10;99.90;;;;;;5094333;28;20040;-64
2023/06/08 10:44:36;;;;;;;10.77;6.43;;;24.10;99.90;;;;;;5073992;28;20424;-64
2023/06/08 10:47:07;;;;;;;7.15;6.07;;;24.30;99.90;;;;;;5094245;28;20409;-64
2023/06/08 10:49:39;;;;;;;8.05;6.47;;;24.30;99.80;;;;;;5092496;28;20044;-64
2023/06/08 10:52:07;;;;;;;9.05;6.40;;;24.40;99.40;;;;;;5073018;28;20115;-64
2023/06/08 10:54:56;;;;;;;8.93;6.55;;;24.60;99.90;;;;;;5093451;28;20036;-64
2023/06/08 10:57:43;;;;;;;8.93;6.32;;;24.70;99.90;;;;;;5094578;28;20235;-64
2023/06/08 11:00:23;;;;;;;8.57;5.85;;;24.90;99.10;;;;;;5094786;28;20028;-64
2023/06/08 11:02:51;;;;;;;7.93;5.15;;;25.00;99.40;;;;;;5093674;28;20040;-64
2023/06/08 11:05:18;;;;;;;6.97;5.95;;;24.90;97.90;;;;;;5076404;28;20090;-64
2023/06/08 11:07:45;;;;;;;6.63;5.53;;;24.70;98.20;;;;;;5092542;28;20032;-63
2023/06/08 11:10:12;;;;;;;7.60;5.47;;;24.40;98.50;;;;;;5094629;28;20047;-64
2023/06/08 11:12:39;;;;;;;7.43;5.75;;;24.20;98.70;;;;;;5093291;28;20439;-64
2023/06/08 11:15:06;;;;;;;8.30;5.75;;;24.10;99.40;;;;;;5075250;28;20043;-63
2023/06/08 11:17:43;;;;;;;6.95;5.90;;;24.00;99.00;;;;;;5061821;28;20040;-64
2023/06/08 11:20:10;;;;;;;10.80;6.13;;;23.90;98.80;;;;;;5094344;28;20068;-64
2023/06/08 11:22:40;;;;;;;8.50;5.95;;;23.80;98.90;;;;;;5089552;28;20039;-64
2023/06/08 11:25:08;;;;;;;7.38;5.45;;;23.70;98.20;;;;;;5094069;28;20115;-64
2023/06/08 11:27:44;;;;;;;5.93;4.72;;;23.60;98.10;;;;;;5091958;28;20040;-64
2023/06/08 11:30:17;;;;;;;7.13;5.10;;;23.60;98.10;;;;;;5093994;28;20044;-64
2023/06/08 11:32:47;;;;;;;6.47;4.97;;;23.70;98.40;;;;;;5071435;28;20048;-64
2023/06/08 11:35:14;;;;;;;6.72;5.47;;;23.70;98.70;;;;;;5092584;28;20056;-64
2023/06/08 11:37:43;;;;;;;;;;;23.50;98.30;;;;;;5093072;28;20435;-64
2023/06/08 11:40:14;;;;;;;7.22;5.20;;;23.70;97.90;;;;;;5093875;28;19946;-64
2023/06/08 11:42:42;;;;;;;6.13;4.55;;;23.80;98.00;;;;;;5092624;28;20047;-65
2023/06/08 11:45:12;;;;;;;9.35;5.93;;;23.90;94.70;;;;;;5093837;28;20396;-64
2023/06/08 11:47:43;;;;;;;11.70;5.15;;;23.70;94.30;;;;;;5090439;28;20432;-64
2023/06/08 11:50:14;;;;;;;6.70;4.47;;;23.60;93.90;;;;;;5091468;28;20420;-64
2023/06/08 11:52:42;;;;;;;7.82;4.63;;;23.50;93.90;;;;;;5072155;28;20046;-63
2023/06/08 11:55:15;;;;;;;10.70;5.10;;;23.30;94.00;;;;;;5090554;28;20071;-64
2023/06/08 11:57:53;;;;;;;8.52;4.80;;;23.10;94.20;;;;;;5074539;28;20081;-64
2023/06/08 12:00:21;;;;;;;9.48;5.00;;;23.10;94.30;;;;;;5073456;28;20048;-64
2023/06/08 12:02:50;;;;;;;7.05;4.95;;;23.20;93.80;;;;;;5072310;28;20047;-64
2023/06/08 12:05:18;;;;;;;7.07;4.88;;;23.10;93.60;;;;;;5093044;28;20083;-64
2023/06/08 12:08:02;;;;;;;7.85;4.40;;;23.10;94.00;;;;;;5087787;28;20059;-64
2023/06/08 12:10:34;;;;;;;7.97;4.82;;;23.00;94.60;;;;;;5092442;28;20378;-64
2023/06/08 12:13:12;;;;;;;8.27;4.90;;;22.90;94.30;;;;;;5092647;28;20047;-64
2023/06/08 12:15:44;;;;;;;7.38;5.32;;;22.90;94.00;;;;;;5090158;28;20050;-64
2023/06/08 12:18:12;;;;;;;8.35;5.25;;;22.70;94.70;;;;;;5091280;28;20038;-64
2023/06/08 12:20:40;;;;;;;8.18;5.25;;;22.70;94.90;;;;;;5091730;28;20044;-63
2023/06/08 12:23:07;;;;;;;7.13;5.00;;;22.80;95.00;;;;;;5092806;28;20043;-64
2023/06/08 12:25:35;;;;;;;10.35;5.10;;;22.60;95.10;;;;;;5092159;28;20056;-64
2023/06/08 12:28:02;;;;;;;7.68;5.35;;;22.70;95.10;;;;;;5073420;28;20560;-64
2023/06/08 12:30:29;;;;;;;8.75;5.10;;;22.80;94.90;;;;;;5084662;28;20036;-64
2023/06/08 12:32:56;;;;;;;6.68;5.30;;;22.80;95.50;;;;;;5092608;28;20105;-64
2023/06/08 12:35:24;;;;;;;5.75;4.63;;;22.90;95.10;;;;;;5086317;28;20047;-64
2023/06/08 12:37:51;;;;;;;6.80;5.30;;;23.10;95.50;;;;;;5091599;28;20097;-63
2023/06/08 12:40:21;;;;;;;10.00;5.30;;;23.10;94.80;;;;;;5090631;28;20040;-64
2023/06/08 12:42:51;;;;;;;6.82;4.75;;;23.00;94.90;;;;;;5091554;28;20036;-64
2023/06/08 12:45:21;;;;;;;6.15;4.45;;;23.10;94.50;;;;;;5089711;28;20652;-64
2023/06/08 12:47:49;;;;;;;5.30;4.43;;;23.00;93.50;;;;;;5091011;28;20032;-64
2023/06/08 12:50:17;;;;;;;8.27;5.15;;;23.00;94.10;;;;;;5090622;28;20044;-64
2023/06/08 12:52:44;;;;;;;5.80;4.60;;;23.00;94.10;;;;;;5090144;28;20090;-64
2023/06/08 12:55:11;;;;;;;6.18;4.57;;;22.80;94.30;;;;;;5091326;28;20114;-65
2023/06/08 12:57:38;;;;;;;6.38;4.95;;;22.70;94.40;;;;;;5088881;28;20115;-64